Aviation Digital Data Service (ADDS)

Output produced by METARs form (1932 UTC 19 August 2019)
found at http://www.aviationweather.gov/metar/data/
 
Forecast for: BIAR (AKUREYRI , IS)
Text: TAF BIAR 191931Z 1921/2021 36012KT 9999 SCT040 TX15/2015Z TN03/2006Z
Forecast period: 2100 to 2200 UTC 19 August 2019
Forecast type: FROM: standard forecast or significant change
Winds: from the N (360 degrees) at 14 MPH (12 knots; 6.2 m/s)
Visibility: 6 or more miles 10+ km)
Ceiling: at least 12,000 feet AGL
Clouds: scattered clouds at 4000 feet AGL
Weather: no significant weather forecast for this period
Text: BECMG 1922/2000 18005KT
Forecast period: 2200 UTC 19 August 2019 to 2100 UTC 20 August 2019
Forecast type: BECOMING: Conditions expected to become as follows by 0000 UTC 20 August 2019
Winds: from the S (180 degrees) at 6 MPH (5 knots; 2.6 m/s)
Visibility: 6 or more miles 10+ km)
Ceiling: at least 12,000 feet AGL
Clouds: scattered clouds at 4000 feet AGL
Weather: no significant weather forecast for this period